Time;durP1;ratioP1;P1;durP2;ratioP2;P2;SDS_P1;SDS_P2;PMS_P1;PMS_P2;Temp;Humidity;BMP_temperature;BMP_pressure;BME280_temperature;BME280_humidity;BME280_pressure;Samples;Min_cycle;Max_cycle;Signal;HPM_P1;HPM_P2
2023/05/02 00:02:03;;;;;;;21.57;17.10;;;11.40;99.90;;;;;;5035747;28;20490;-81
2023/05/02 00:04:30;;;;;;;29.53;17.77;;;11.40;99.90;;;;;;5046759;28;20452;-81
2023/05/02 00:06:58;;;;;;;20.60;17.40;;;11.30;99.90;;;;;;5056542;28;20452;-81
2023/05/02 00:09:25;;;;;;;21.77;17.70;;;11.20;99.90;;;;;;5051578;28;20482;-80
2023/05/02 00:11:51;;;;;;;21.50;18.03;;;11.10;99.90;;;;;;5036012;28;20494;-81
2023/05/02 00:14:18;;;;;;;22.47;19.03;;;11.00;99.90;;;;;;5035544;28;20541;-81
2023/05/02 00:16:45;;;;;;;23.53;18.97;;;10.90;99.90;;;;;;5035873;28;20461;-80
2023/05/02 00:19:12;;;;;;;23.40;17.80;;;10.90;99.90;;;;;;5035987;28;20486;-81
2023/05/02 00:21:39;;;;;;;21.00;17.67;;;10.90;99.90;;;;;;5035956;28;20481;-80
2023/05/02 00:24:07;;;;;;;22.07;17.37;;;10.80;99.90;;;;;;5015784;28;20531;-81
2023/05/02 00:26:34;;;;;;;26.37;20.13;;;10.80;99.90;;;;;;5029854;28;20458;-82
2023/05/02 00:29:01;;;;;;;24.37;19.33;;;10.70;99.90;;;;;;5035856;28;20485;-80
2023/05/02 00:31:28;;;;;;;22.90;19.43;;;10.70;99.90;;;;;;5035875;28;21033;-81
2023/05/02 00:33:55;;;;;;;25.70;21.13;;;10.60;99.90;;;;;;5035229;28;20489;-81
2023/05/02 00:36:22;;;;;;;24.40;21.23;;;10.60;99.90;;;;;;5033875;28;20463;-81
2023/05/02 00:38:49;;;;;;;29.07;22.73;;;10.60;99.90;;;;;;5046080;28;20488;-80
2023/05/02 00:41:18;;;;;;;26.60;21.80;;;10.60;99.90;;;;;;5047340;28;20466;-81
2023/05/02 00:43:45;;;;;;;33.73;23.13;;;10.60;99.90;;;;;;5039245;28;20681;-81
2023/05/02 00:46:12;;;;;;;27.20;22.70;;;10.60;99.90;;;;;;5035102;28;20502;-82
2023/05/02 00:48:39;;;;;;;37.70;26.20;;;10.70;99.90;;;;;;5034828;28;20473;-81
2023/05/02 00:51:07;;;;;;;37.30;26.23;;;10.80;99.90;;;;;;5031062;28;20492;-81
2023/05/02 00:53:35;;;;;;;32.37;25.70;;;10.90;99.90;;;;;;5024401;28;20472;-82
2023/05/02 00:56:02;;;;;;;36.87;25.97;;;11.00;99.90;;;;;;5043410;28;20444;-81
2023/05/02 00:58:31;;;;;;;32.97;24.70;;;11.10;99.90;;;;;;5045035;28;21000;-81
2023/05/02 01:01:06;;;;;;;32.43;25.90;;;11.20;99.90;;;;;;5045668;28;20454;-81
2023/05/02 01:03:41;;;;;;;35.93;27.20;;;11.20;99.90;;;;;;5037295;28;20450;-81
2023/05/02 01:06:19;;;;;;;42.30;29.80;;;11.30;99.90;;;;;;5037216;28;20924;-82
2023/05/02 01:08:55;;;;;;;35.53;27.90;;;11.30;99.90;;;;;;5036407;28;20470;-81
2023/05/02 01:11:30;;;;;;;38.03;25.40;;;11.30;99.90;;;;;;5036695;28;20479;-82
2023/05/02 01:14:01;;;;;;;34.63;26.20;;;11.40;99.90;;;;;;5038929;28;20526;-80
2023/05/02 01:16:29;;;;;;;34.10;26.73;;;11.40;99.90;;;;;;5048576;28;20463;-80
2023/05/02 01:18:57;;;;;;;37.20;28.20;;;11.40;99.90;;;;;;5057470;28;21007;-81
2023/05/02 01:21:25;;;;;;;34.33;27.37;;;11.50;99.90;;;;;;5036176;28;20580;-81
2023/05/02 01:24:03;;;;;;;36.87;27.40;;;11.60;99.90;;;;;;5035488;28;20455;-80
2023/05/02 01:26:36;;;;;;;38.40;29.30;;;11.60;99.90;;;;;;5035401;28;20494;-82
2023/05/02 01:29:07;;;;;;;40.93;27.93;;;11.60;99.90;;;;;;5041462;28;20508;-82
2023/05/02 01:31:39;;;;;;;37.93;28.27;;;11.70;99.90;;;;;;5041290;28;20941;-80
2023/05/02 01:34:09;;;;;;;37.20;29.47;;;11.70;99.90;;;;;;5046111;28;20476;-81
2023/05/02 01:36:39;;;;;;;43.90;30.87;;;11.80;99.90;;;;;;5048867;28;20512;-81
2023/05/02 01:39:09;;;;;;;38.23;27.53;;;11.80;99.90;;;;;;5042029;28;20482;-81
2023/05/02 01:41:37;;;;;;;41.40;29.40;;;11.90;99.90;;;;;;5040568;28;20459;-81
2023/05/02 01:44:07;;;;;;;41.10;27.80;;;11.80;99.90;;;;;;5041850;28;20510;-83
2023/05/02 01:46:37;;;;;;;40.93;28.43;;;11.80;99.90;;;;;;5043265;28;20459;-81
2023/05/02 01:49:07;;;;;;;39.57;28.27;;;11.80;99.90;;;;;;5045433;28;20466;-81
2023/05/02 01:51:36;;;;;;;36.50;27.50;;;11.80;99.90;;;;;;5018551;28;20492;-81
2023/05/02 01:54:06;;;;;;;34.30;26.87;;;11.70;99.90;;;;;;5026253;28;20461;-81
2023/05/02 01:56:35;;;;;;;33.43;24.47;;;11.70;99.90;;;;;;5043776;28;20453;-81
2023/05/02 01:59:04;;;;;;;38.07;27.30;;;11.70;99.90;;;;;;5039255;28;20480;-81
2023/05/02 02:01:34;;;;;;;37.73;25.00;;;11.80;99.90;;;;;;5045970;28;20905;-81
2023/05/02 02:04:02;;;;;;;35.97;24.47;;;11.70;99.90;;;;;;5053109;23;20502;-81
2023/05/02 02:06:28;;;;;;;35.90;25.77;;;11.80;99.90;;;;;;5030682;28;20459;-81
2023/05/02 02:08:55;;;;;;;32.10;22.70;;;11.70;99.90;;;;;;5027680;28;20884;-81
2023/05/02 02:11:34;;;;;;;34.00;24.17;;;11.70;99.90;;;;;;5056432;28;20553;-81
2023/05/02 02:14:06;;;;;;;31.33;22.87;;;11.80;99.90;;;;;;5040822;28;20514;-81
2023/05/02 02:16:38;;;;;;;28.70;21.13;;;11.70;99.90;;;;;;5045707;28;20460;-80
2023/05/02 02:19:08;;;;;;;31.70;23.43;;;11.80;99.90;;;;;;5034418;28;20455;-81
2023/05/02 02:21:37;;;;;;;31.07;22.87;;;11.70;99.90;;;;;;5036011;28;20451;-81
2023/05/02 02:24:06;;;;;;;30.47;22.47;;;11.70;99.90;;;;;;5045339;28;20901;-80
2023/05/02 02:26:34;;;;;;;32.10;21.20;;;11.70;99.90;;;;;;5051342;28;20472;-81
2023/05/02 02:29:01;;;;;;;30.40;20.40;;;11.80;99.90;;;;;;5045039;28;20451;-81
2023/05/02 02:31:31;;;;;;;28.83;21.47;;;11.80;99.90;;;;;;5041379;28;20550;-81
2023/05/02 02:34:00;;;;;;;36.60;21.80;;;11.80;99.90;;;;;;5041498;28;20570;-81
2023/05/02 02:36:31;;;;;;;25.87;18.80;;;11.80;99.90;;;;;;5057361;28;20458;-81
2023/05/02 02:39:09;;;;;;;27.00;20.27;;;11.70;99.90;;;;;;5057167;28;20503;-81
2023/05/02 02:41:42;;;;;;;25.77;18.83;;;11.80;99.90;;;;;;5065955;28;20466;-81
2023/05/02 02:44:28;;;;;;;29.70;19.67;;;11.80;99.90;;;;;;5043831;28;20542;-81
2023/05/02 02:47:04;;;;;;;28.67;18.33;;;11.80;99.90;;;;;;5051009;28;20435;-81
2023/05/02 02:49:44;;;;;;;32.43;19.10;;;11.90;99.90;;;;;;5044002;28;20442;-81
2023/05/02 02:52:17;;;;;;;25.60;18.17;;;11.90;99.90;;;;;;5054077;28;20481;-80
2023/05/02 02:54:49;;;;;;;32.17;19.73;;;11.90;99.90;;;;;;5050591;28;20474;-81
2023/05/02 02:57:21;;;;;;;22.07;15.93;;;11.90;99.90;;;;;;5056734;28;20757;-80
2023/05/02 02:59:57;;;;;;;25.60;16.87;;;11.80;99.90;;;;;;5047922;28;20534;-80
2023/05/02 03:02:30;;;;;;;24.87;16.13;;;11.80;99.90;;;;;;5041752;28;20457;-79
2023/05/02 03:05:00;;;;;;;23.07;15.93;;;11.80;99.90;;;;;;5047839;28;20502;-81
2023/05/02 03:07:28;;;;;;;26.60;17.63;;;11.90;99.90;;;;;;5042384;28;20459;-79
2023/05/02 03:09:55;;;;;;;28.20;17.40;;;11.90;99.90;;;;;;5041407;28;21003;-81
2023/05/02 03:12:22;;;;;;;23.53;15.77;;;11.80;99.90;;;;;;5039209;28;20490;-78
2023/05/02 03:14:49;;;;;;;24.03;16.23;;;11.80;99.90;;;;;;5048707;28;20536;-80
2023/05/02 03:17:15;;;;;;;24.93;17.33;;;11.80;99.90;;;;;;5054583;28;20462;-82
2023/05/02 03:19:42;;;;;;;22.63;15.37;;;11.80;99.90;;;;;;5041285;28;20469;-82
2023/05/02 03:22:10;;;;;;;22.50;14.57;;;11.90;99.90;;;;;;5042736;28;20452;-82
2023/05/02 03:24:37;;;;;;;20.73;13.63;;;11.80;99.90;;;;;;5048814;28;20489;-82
2023/05/02 03:27:04;;;;;;;21.03;13.30;;;11.80;99.90;;;;;;5055671;28;20458;-81
2023/05/02 03:29:31;;;;;;;21.63;14.43;;;11.80;99.90;;;;;;5046899;28;20462;-82
2023/05/02 03:31:57;;;;;;;17.90;12.73;;;11.70;99.90;;;;;;5052625;28;20497;-82
2023/05/02 03:34:24;;;;;;;17.27;10.90;;;11.80;99.90;;;;;;5049561;28;20478;-82
2023/05/02 03:36:51;;;;;;;17.63;10.93;;;11.90;99.90;;;;;;5043758;28;20463;-82
2023/05/02 03:39:19;;;;;;;16.33;11.67;;;11.90;99.90;;;;;;5049784;28;20446;-81
2023/05/02 03:41:46;;;;;;;17.27;10.93;;;11.80;99.90;;;;;;5041185;28;20518;-82
2023/05/02 03:44:13;;;;;;;17.53;11.43;;;11.80;99.90;;;;;;5050959;28;20465;-82
2023/05/02 03:46:39;;;;;;;18.53;12.53;;;11.90;99.90;;;;;;5056235;28;20451;-82
2023/05/02 03:49:06;;;;;;;15.57;10.33;;;11.90;99.90;;;;;;5042267;28;20843;-82
2023/05/02 03:51:34;;;;;;;14.03;9.93;;;11.90;99.90;;;;;;5041065;28;20521;-82
2023/05/02 03:54:01;;;;;;;17.23;10.33;;;11.90;99.90;;;;;;5042027;28;20473;-82
2023/05/02 03:56:30;;;;;;;16.03;9.63;;;11.90;99.90;;;;;;5038334;28;20503;-82
2023/05/02 03:58:56;;;;;;;16.20;10.03;;;12.00;99.90;;;;;;5049768;28;20439;-81
2023/05/02 04:01:23;;;;;;;14.10;10.00;;;12.00;99.90;;;;;;5041650;28;20557;-81
2023/05/02 04:03:50;;;;;;;14.30;9.90;;;12.00;99.90;;;;;;5041410;28;20559;-81
2023/05/02 04:06:17;;;;;;;17.30;10.30;;;11.90;99.90;;;;;;5042489;28;20451;-82
2023/05/02 04:08:44;;;;;;;14.37;10.33;;;12.00;99.90;;;;;;5042687;28;20525;-81
2023/05/02 04:11:10;;;;;;;19.47;11.60;;;12.00;99.90;;;;;;5041183;28;20973;-81
2023/05/02 04:13:39;;;;;;;17.83;11.60;;;12.00;99.90;;;;;;5042702;28;20571;-81
2023/05/02 04:16:06;;;;;;;20.47;13.30;;;12.00;99.90;;;;;;5043743;28;20969;-82
2023/05/02 04:18:33;;;;;;;21.10;13.50;;;12.00;99.90;;;;;;5041706;28;20464;-81
2023/05/02 04:20:59;;;;;;;21.53;12.67;;;11.90;99.90;;;;;;5051051;28;20537;-81
2023/05/02 04:23:26;;;;;;;18.13;12.90;;;12.00;99.90;;;;;;5064095;28;20501;-81
2023/05/02 04:25:53;;;;;;;22.43;13.77;;;12.00;99.90;;;;;;5059334;28;20459;-82
2023/05/02 04:28:20;;;;;;;19.27;12.80;;;12.00;99.90;;;;;;5044541;28;20520;-80
2023/05/02 04:30:49;;;;;;;17.53;13.37;;;12.00;99.90;;;;;;5043017;28;20485;-80
2023/05/02 04:33:17;;;;;;;13.97;10.93;;;11.90;99.90;;;;;;5042678;28;20478;-80
2023/05/02 04:35:44;;;;;;;17.57;10.83;;;11.90;99.90;;;;;;5043203;28;20489;-80
2023/05/02 04:38:11;;;;;;;15.53;12.00;;;11.90;99.90;;;;;;5044443;28;20529;-80
2023/05/02 04:40:38;;;;;;;15.50;11.60;;;11.80;99.90;;;;;;5042247;28;20985;-79
2023/05/02 04:43:05;;;;;;;20.77;13.40;;;11.90;99.90;;;;;;5042329;28;20535;-80
2023/05/02 04:45:32;;;;;;;19.17;12.53;;;11.80;99.90;;;;;;5042461;28;20908;-81
2023/05/02 04:48:00;;;;;;;18.37;12.23;;;11.90;99.90;;;;;;5043035;28;20461;-83
2023/05/02 04:50:28;;;;;;;24.33;13.50;;;11.90;99.90;;;;;;5042218;28;20522;-82
2023/05/02 04:52:55;;;;;;;20.73;13.17;;;11.80;99.90;;;;;;5041902;28;20470;-82
2023/05/02 04:55:21;;;;;;;17.33;12.50;;;11.80;99.90;;;;;;5041762;28;20484;-80
2023/05/02 04:57:48;;;;;;;21.67;13.20;;;11.80;99.90;;;;;;5042756;28;20457;-80
2023/05/02 05:00:15;;;;;;;20.03;14.33;;;11.80;99.90;;;;;;5041359;28;20457;-80
2023/05/02 05:02:42;;;;;;;22.90;14.23;;;11.80;99.90;;;;;;5041366;28;20450;-80
2023/05/02 05:05:11;;;;;;;20.70;13.80;;;11.70;99.90;;;;;;5041130;28;20763;-80
2023/05/02 05:07:38;;;;;;;27.23;14.80;;;11.70;99.90;;;;;;5030521;28;20468;-78
2023/05/02 05:10:06;;;;;;;24.10;14.60;;;11.60;99.90;;;;;;5013568;28;20450;-79
2023/05/02 05:12:33;;;;;;;20.80;13.13;;;11.60;99.90;;;;;;5039159;28;20481;-79
2023/05/02 05:15:00;;;;;;;27.53;15.30;;;11.60;99.90;;;;;;5042151;28;20538;-80
2023/05/02 05:17:27;;;;;;;19.30;13.60;;;11.60;99.90;;;;;;5043391;28;20524;-78
2023/05/02 05:19:53;;;;;;;24.40;14.47;;;11.60;99.90;;;;;;5041691;28;20533;-80
2023/05/02 05:22:22;;;;;;;23.80;13.67;;;11.50;99.90;;;;;;5050563;28;20985;-79
2023/05/02 05:24:52;;;;;;;16.90;11.53;;;11.50;99.90;;;;;;5045307;28;20476;-78
2023/05/02 05:27:19;;;;;;;13.20;7.60;;;11.50;99.90;;;;;;5044301;28;20535;-79
2023/05/02 05:29:46;;;;;;;10.60;8.17;;;11.40;99.90;;;;;;5043617;28;20458;-80
2023/05/02 05:32:13;;;;;;;13.17;8.50;;;11.40;99.90;;;;;;5043892;28;20453;-79
2023/05/02 05:34:39;;;;;;;11.80;7.20;;;11.40;99.90;;;;;;5044186;28;20487;-78
2023/05/02 05:37:06;;;;;;;8.40;5.93;;;11.30;99.90;;;;;;5043795;28;20451;-80
2023/05/02 05:39:34;;;;;;;6.80;5.20;;;11.30;99.90;;;;;;5042527;28;20462;-80
2023/05/02 05:42:02;;;;;;;7.80;5.80;;;11.20;99.90;;;;;;5046449;28;20547;-79
2023/05/02 05:44:29;;;;;;;8.57;5.77;;;11.20;99.90;;;;;;5039812;28;20830;-78
2023/05/02 05:46:55;;;;;;;7.63;5.77;;;11.10;99.90;;;;;;5039299;28;20536;-80
2023/05/02 05:49:23;;;;;;;9.33;5.60;;;11.10;99.90;;;;;;5038736;28;21076;-83
2023/05/02 05:51:49;;;;;;;12.10;6.30;;;11.10;99.90;;;;;;5043761;28;20453;-81
2023/05/02 05:54:17;;;;;;;9.20;6.00;;;11.10;99.90;;;;;;5049382;28;20548;-85
2023/05/02 05:56:45;;;;;;;9.60;6.20;;;10.90;99.90;;;;;;5052161;28;20871;-84
2023/05/02 05:59:12;;;;;;;13.20;7.83;;;10.90;99.90;;;;;;5045582;28;20457;-83
2023/05/02 06:01:39;;;;;;;10.47;6.73;;;10.90;99.90;;;;;;5055007;28;20448;-84
2023/05/02 06:04:07;;;;;;;14.17;6.67;;;10.90;99.90;;;;;;5040021;28;20512;-84
2023/05/02 06:06:34;;;;;;;7.97;5.50;;;10.90;99.90;;;;;;5039354;28;20465;-85
2023/05/02 06:09:01;;;;;;;8.30;5.70;;;11.10;99.90;;;;;;5033974;28;20461;-84
2023/05/02 06:11:28;;;;;;;11.40;6.70;;;11.00;99.90;;;;;;5036461;28;20480;-83
2023/05/02 06:13:56;;;;;;;7.20;5.90;;;11.10;99.90;;;;;;5038393;28;20583;-83
2023/05/02 06:16:23;;;;;;;9.13;6.23;;;11.10;99.90;;;;;;5032855;28;20462;-84
2023/05/02 06:18:52;;;;;;;6.73;5.47;;;11.20;99.90;;;;;;5037820;28;20694;-84
2023/05/02 06:21:19;;;;;;;11.63;6.20;;;11.30;99.90;;;;;;5042138;28;20861;-84
2023/05/02 06:23:46;;;;;;;6.43;5.30;;;11.40;99.90;;;;;;5040885;28;20523;-85
2023/05/02 06:26:13;;;;;;;10.17;7.17;;;11.40;99.90;;;;;;5040160;28;20456;-83
2023/05/02 06:28:43;;;;;;;11.87;5.80;;;11.40;99.90;;;;;;5041282;28;20952;-84
2023/05/02 06:31:11;;;;;;;10.87;6.23;;;11.50;99.90;;;;;;5039471;28;20508;-84
2023/05/02 06:33:38;;;;;;;6.30;5.30;;;11.40;99.90;;;;;;5037628;28;20496;-84
2023/05/02 06:36:08;;;;;;;7.77;5.67;;;11.50;99.90;;;;;;5045168;28;20458;-85
2023/05/02 06:38:35;;;;;;;6.90;4.90;;;11.50;99.90;;;;;;5038046;28;20450;-85
2023/05/02 06:41:02;;;;;;;5.93;4.47;;;11.70;99.90;;;;;;5036121;28;20538;-82
2023/05/02 06:43:28;;;;;;;4.20;3.80;;;12.00;99.90;;;;;;5040614;28;20552;-84
2023/05/02 06:45:56;;;;;;;4.40;4.00;;;12.20;99.90;;;;;;5042710;28;20463;-83
2023/05/02 06:48:24;;;;;;;8.83;4.60;;;12.50;99.90;;;;;;5041274;28;20523;-84
2023/05/02 06:50:52;;;;;;;4.60;3.60;;;12.60;99.90;;;;;;5042137;28;20527;-83
2023/05/02 06:53:19;;;;;;;5.23;4.17;;;12.80;99.90;;;;;;5042637;28;20488;-81
2023/05/02 06:55:47;;;;;;;5.30;4.33;;;13.00;99.90;;;;;;5042860;28;20539;-82
2023/05/02 06:58:14;;;;;;;8.13;4.10;;;13.00;99.90;;;;;;5043298;28;20540;-83
2023/05/02 07:00:41;;;;;;;6.10;3.90;;;12.80;92.60;;;;;;5041101;28;20457;-84
2023/05/02 07:03:09;;;;;;;7.53;4.40;;;12.90;99.90;;;;;;5038085;28;20988;-83
2023/05/02 07:05:38;;;;;;;6.27;3.60;;;13.00;99.90;;;;;;5043410;28;20456;-83
2023/05/02 07:08:05;;;;;;;3.40;2.80;;;12.90;85.30;;;;;;5040699;28;20454;-84
2023/05/02 07:10:32;;;;;;;5.20;3.40;;;12.80;99.90;;;;;;5046225;28;20466;-84
2023/05/02 07:12:59;;;;;;;7.33;4.20;;;12.80;99.90;;;;;;5045461;28;20562;-83
2023/05/02 07:15:25;;;;;;;5.17;3.53;;;12.80;99.90;;;;;;5058024;28;21068;-79
2023/05/02 07:17:52;;;;;;;6.00;3.33;;;12.70;99.90;;;;;;5045716;28;20516;-83
2023/05/02 07:20:19;;;;;;;7.07;4.10;;;12.60;99.90;;;;;;5045534;28;20559;-83
2023/05/02 07:22:48;;;;;;;11.00;4.33;;;12.50;99.90;;;;;;5047196;28;20487;-83
2023/05/02 07:25:14;;;;;;;6.63;3.83;;;12.50;99.90;;;;;;5051111;28;20510;-81
2023/05/02 07:27:41;;;;;;;6.73;2.90;;;12.40;99.90;;;;;;5050839;28;20474;-81
2023/05/02 07:30:09;;;;;;;5.63;3.07;;;12.50;99.90;;;;;;5044495;28;20454;-82
2023/05/02 07:32:36;;;;;;;6.40;3.23;;;12.50;99.90;;;;;;5052848;28;20511;-80
2023/05/02 07:35:02;;;;;;;5.80;3.70;;;12.40;99.90;;;;;;5051418;28;20515;-80
2023/05/02 07:37:33;;;;;;;7.87;3.70;;;12.30;99.90;;;;;;5052659;28;20491;-82
2023/05/02 07:40:01;;;;;;;4.10;2.90;;;12.10;99.90;;;;;;5054573;28;20486;-80
2023/05/02 07:42:29;;;;;;;3.50;2.83;;;11.60;99.90;;;;;;5052714;28;20459;-82
2023/05/02 07:44:56;;;;;;;5.63;3.47;;;11.40;99.90;;;;;;5044733;28;20466;-81
2023/05/02 07:47:23;;;;;;;3.70;3.00;;;11.00;99.90;;;;;;5046209;28;20501;-82
2023/05/02 07:49:51;;;;;;;3.73;2.53;;;10.80;99.90;;;;;;5048939;28;21078;-81
2023/05/02 07:52:18;;;;;;;2.63;2.27;;;10.90;99.90;;;;;;5047134;28;20457;-82
2023/05/02 07:54:45;;;;;;;2.60;1.77;;;10.80;99.90;;;;;;5044345;28;20516;-82
2023/05/02 07:57:13;;;;;;;5.63;2.17;;;10.70;99.90;;;;;;5043805;28;20539;-81
2023/05/02 07:59:40;;;;;;;3.53;1.97;;;10.60;99.90;;;;;;5038446;28;20524;-82
2023/05/02 08:02:07;;;;;;;4.80;1.90;;;10.60;99.90;;;;;;5042345;28;20448;-82
2023/05/02 08:04:34;;;;;;;2.57;2.07;;;10.80;99.90;;;;;;5049276;22;20493;-84
2023/05/02 08:07:01;;;;;;;4.93;1.87;;;10.90;99.90;;;;;;5013460;28;20529;-82
2023/05/02 08:09:28;;;;;;;3.47;1.70;;;10.90;99.90;;;;;;5014757;28;20474;-83
2023/05/02 08:11:55;;;;;;;3.60;2.23;;;11.00;99.90;;;;;;5032487;28;20531;-86
2023/05/02 08:14:23;;;;;;;2.33;1.57;;;11.00;99.90;;;;;;5013025;28;21051;-85
2023/05/02 08:16:50;;;;;;;3.50;1.90;;;10.90;99.90;;;;;;5005423;28;20460;-82
2023/05/02 08:19:17;;;;;;;4.20;2.47;;;10.80;99.90;;;;;;5006296;28;20489;-85
2023/05/02 08:21:44;;;;;;;4.30;2.80;;;10.50;99.90;;;;;;4992622;28;20465;-85
2023/05/02 08:24:10;;;;;;;5.23;2.53;;;10.40;99.90;;;;;;4995722;28;20495;-84
2023/05/02 08:26:37;;;;;;;3.43;2.10;;;10.30;99.90;;;;;;4995654;28;20459;-84
2023/05/02 08:29:04;;;;;;;5.30;2.30;;;10.20;99.90;;;;;;5002474;28;20458;-84
2023/05/02 08:31:32;;;;;;;4.03;2.40;;;10.10;99.90;;;;;;5006916;28;20879;-82
2023/05/02 08:33:59;;;;;;;9.03;3.07;;;10.00;99.90;;;;;;5013099;28;20567;-84
2023/05/02 08:36:27;;;;;;;6.60;3.37;;;9.80;99.90;;;;;;5000574;28;20531;-83
2023/05/02 08:38:54;;;;;;;8.40;3.23;;;9.80;99.90;;;;;;4994651;28;20493;-86
2023/05/02 08:41:21;;;;;;;6.10;3.20;;;9.90;99.90;;;;;;4995477;28;20543;-84
2023/05/02 08:43:48;;;;;;;4.70;2.60;;;10.00;99.90;;;;;;4993967;28;20461;-84
2023/05/02 08:46:17;;;;;;;4.83;3.17;;;10.10;99.90;;;;;;4993695;28;20921;-83
2023/05/02 08:48:47;;;;;;;5.37;3.13;;;10.00;99.90;;;;;;4996643;28;20480;-83
2023/05/02 08:51:15;;;;;;;6.10;4.13;;;10.10;99.90;;;;;;4999835;28;20447;-81
2023/05/02 08:53:43;;;;;;;5.27;3.40;;;10.20;99.90;;;;;;5014563;28;20512;-84
2023/05/02 08:56:11;;;;;;;13.53;3.30;;;10.20;99.90;;;;;;5003340;28;20466;-80
2023/05/02 08:58:40;;;;;;;5.27;3.27;;;10.40;99.90;;;;;;4994514;28;20822;-83
2023/05/02 09:01:13;;;;;;;10.53;6.20;;;10.40;99.90;;;;;;5007336;28;20548;-85
2023/05/02 09:03:40;;;;;;;6.97;4.00;;;10.40;99.90;;;;;;5018826;28;20815;-83
2023/05/02 09:06:11;;;;;;;9.00;4.30;;;10.40;99.90;;;;;;5002328;28;20488;-83
2023/05/02 09:08:39;;;;;;;9.80;4.03;;;10.60;99.90;;;;;;4998871;28;20470;-83
2023/05/02 09:11:07;;;;;;;6.30;3.70;;;10.70;99.90;;;;;;5002038;28;20457;-85
2023/05/02 09:13:35;;;;;;;7.50;4.10;;;10.60;99.90;;;;;;5017798;28;20473;-84
2023/05/02 09:16:03;;;;;;;10.53;3.90;;;10.60;99.90;;;;;;5013093;28;20857;-85
2023/05/02 09:18:32;;;;;;;4.97;3.13;;;10.50;99.90;;;;;;5019643;28;20461;-84
2023/05/02 09:21:00;;;;;;;5.07;3.73;;;10.40;99.90;;;;;;4999885;28;20470;-84
2023/05/02 09:23:39;;;;;;;3.30;2.67;;;10.20;99.90;;;;;;5006126;28;20965;-83
2023/05/02 09:26:21;;;;;;;6.50;3.50;;;10.10;99.90;;;;;;5002303;28;20457;-84
2023/05/02 09:28:49;;;;;;;7.53;3.20;;;10.00;99.90;;;;;;5007086;28;20456;-85
2023/05/02 09:31:17;;;;;;;5.90;3.07;;;9.80;99.90;;;;;;5010900;28;20548;-84
2023/05/02 09:33:45;;;;;;;6.30;2.97;;;10.00;99.90;;;;;;4996591;28;20493;-86
2023/05/02 09:36:14;;;;;;;8.10;3.23;;;10.00;99.90;;;;;;5000211;28;20459;-85
2023/05/02 09:38:43;;;;;;;10.43;2.73;;;10.20;99.90;;;;;;4999311;28;20455;-86
2023/05/02 09:41:10;;;;;;;4.10;2.97;;;10.40;99.90;;;;;;5003049;28;20918;-86
2023/05/02 09:43:37;;;;;;;5.20;2.80;;;10.70;99.90;;;;;;4996002;28;20457;-85
2023/05/02 09:46:05;;;;;;;5.50;3.10;;;10.90;99.90;;;;;;4994439;28;20524;-86
2023/05/02 09:48:51;;;;;;;6.93;3.10;;;11.00;99.90;;;;;;4984441;28;20490;-85
2023/05/02 09:51:18;;;;;;;3.40;2.40;;;11.00;70.20;;;;;;4988337;28;20460;-84
2023/05/02 09:53:46;;;;;;;3.77;2.27;;;11.20;1.00;;;;;;4992939;28;20973;-84
2023/05/02 09:56:14;;;;;;;3.67;2.33;;;11.60;19.10;;;;;;4996921;28;20463;-82
2023/05/02 09:58:40;;;;;;;6.90;2.83;;;11.90;1.00;;;;;;4988476;28;20465;-85
2023/05/02 10:01:07;;;;;;;4.57;2.60;;;12.20;1.00;;;;;;4990097;28;20455;-84
2023/05/02 10:03:37;;;;;;;5.07;2.87;;;12.40;1.00;;;;;;4992905;28;20464;-84
2023/05/02 10:06:07;;;;;;;9.80;3.90;;;12.70;1.00;;;;;;4988375;28;20455;-85
2023/05/02 10:08:35;;;;;;;7.47;2.50;;;12.80;1.00;;;;;;4993810;28;20569;-84
2023/05/02 10:11:07;;;;;;;6.30;2.60;;;13.00;1.00;;;;;;4994420;28;20456;-84
2023/05/02 10:13:36;;;;;;;7.20;3.07;;;13.40;99.90;;;;;;4991451;28;20478;-82
2023/05/02 10:16:05;;;;;;;4.30;2.67;;;13.50;99.90;;;;;;4997977;28;20843;-81
2023/05/02 10:18:38;;;;;;;5.80;3.00;;;14.00;1.00;;;;;;4993029;28;20488;-83
2023/05/02 10:21:09;;;;;;;4.73;2.97;;;14.00;1.00;;;;;;4998552;28;20572;-84
2023/05/02 10:23:38;;;;;;;7.83;3.50;;;14.00;93.00;;;;;;4998017;28;20508;-83
2023/05/02 10:26:06;;;;;;;7.30;3.70;;;14.50;1.00;;;;;;4996470;28;20452;-85
2023/05/02 10:28:34;;;;;;;6.47;3.30;;;14.80;63.80;;;;;;5006350;28;20949;-85
2023/05/02 10:31:02;;;;;;;6.27;3.67;;;14.80;1.00;;;;;;5002452;28;20453;-84
2023/05/02 10:33:31;;;;;;;5.20;3.40;;;14.70;99.90;;;;;;5010851;28;20464;-83
2023/05/02 10:35:58;;;;;;;5.90;3.40;;;14.90;99.90;;;;;;5005291;28;20474;-83
2023/05/02 10:38:25;;;;;;;5.83;4.10;;;15.00;99.90;;;;;;4997360;28;20453;-84
2023/05/02 10:40:57;;;;;;;7.23;3.83;;;15.30;99.90;;;;;;5007403;28;20835;-83
2023/05/02 10:43:27;;;;;;;10.87;4.57;;;15.80;99.90;;;;;;4990145;28;20470;-86
2023/05/02 10:45:54;;;;;;;11.43;4.20;;;16.10;61.10;;;;;;5004628;28;20471;-84
2023/05/02 10:48:23;;;;;;;8.03;4.70;;;16.70;1.00;;;;;;4998226;28;20542;-85
2023/05/02 10:50:52;;;;;;;8.73;3.80;;;16.40;1.00;;;;;;5004566;28;20462;-82
2023/05/02 10:53:27;;;;;;;5.37;3.40;;;15.60;1.00;;;;;;4991626;28;20443;-83
2023/05/02 10:56:15;;;;;;;7.30;3.27;;;15.60;1.00;;;;;;4993541;28;20499;-84
2023/05/02 10:58:45;;;;;;;8.27;3.03;;;15.60;1.00;;;;;;5003181;28;20459;-85
2023/05/02 11:01:40;;;;;;;7.73;3.60;;;15.60;1.00;;;;;;4996551;28;20817;-83
2023/05/02 11:04:10;;;;;;;5.17;2.37;;;15.50;1.00;;;;;;5001758;28;20485;-84
2023/05/02 11:07:16;;;;;;;8.03;4.07;;;15.40;1.00;;;;;;4996577;28;21185;-85
2023/05/02 11:09:43;;;;;;;4.93;2.57;;;15.20;1.00;;;;;;4974507;28;21152;-83
2023/05/02 11:12:09;;;;;;;4.57;2.70;;;15.50;1.00;;;;;;4971403;28;20451;-83
2023/05/02 11:14:48;;;;;;;5.67;3.17;;;15.60;1.00;;;;;;4974178;28;20494;-81
2023/05/02 11:17:16;;;;;;;10.30;2.80;;;15.40;1.00;;;;;;4971514;28;20454;-84
2023/05/02 11:20:28;;;;;;;8.90;3.30;;;14.90;1.00;;;;;;4977980;28;20542;-84
2023/05/02 11:23:01;;;;;;;8.87;3.30;;;14.60;1.00;;;;;;4976452;28;20485;-85
2023/05/02 11:25:35;;;;;;;6.40;2.57;;;14.30;1.00;;;;;;4978139;28;20509;-84
2023/05/02 11:28:06;;;;;;;4.17;2.40;;;14.00;1.00;;;;;;4977830;28;20468;-81
2023/05/02 11:30:47;;;;;;;4.50;2.27;;;14.10;1.00;;;;;;4977266;28;20464;-84
2023/05/02 11:33:18;;;;;;;5.73;2.70;;;14.40;1.00;;;;;;4977175;28;20452;-82
2023/05/02 11:35:49;;;;;;;5.80;2.83;;;14.60;1.00;;;;;;4974785;28;20502;-85
2023/05/02 11:38:21;;;;;;;5.97;2.37;;;14.80;1.00;;;;;;4987343;28;21022;-84
2023/05/02 11:40:58;;;;;;;6.30;2.57;;;14.60;1.00;;;;;;4993123;28;20850;-86
2023/05/02 11:43:27;;;;;;;6.57;2.17;;;14.30;1.00;;;;;;4970262;28;20494;-85
2023/05/02 11:45:58;;;;;;;6.90;2.37;;;14.80;1.00;;;;;;4979853;28;20500;-84
2023/05/02 11:48:27;;;;;;;5.17;2.23;;;14.80;1.00;;;;;;4970370;28;20458;-82
2023/05/02 11:50:55;;;;;;;4.53;2.10;;;15.00;1.00;;;;;;4975122;28;20459;-85
2023/05/02 11:53:23;;;;;;;4.03;2.00;;;15.20;1.00;;;;;;4970993;28;20968;-84
2023/05/02 11:55:52;;;;;;;6.13;2.10;;;15.60;1.00;;;;;;4980318;28;20494;-85
2023/05/02 11:58:20;;;;;;;7.13;2.40;;;15.80;1.00;;;;;;4976451;28;20469;-85
2023/05/02 12:00:48;;;;;;;4.23;3.00;;;16.00;1.00;;;;;;4983338;28;20465;-84
2023/05/02 12:03:28;;;;;;;6.27;2.70;;;15.90;1.00;;;;;;4988265;28;20483;-83
2023/05/02 12:05:56;;;;;;;4.70;2.63;;;16.20;1.00;;;;;;4988254;28;20490;-85
2023/05/02 12:08:25;;;;;;;3.37;2.00;;;16.80;1.00;;;;;;4979029;28;20459;-84
2023/05/02 12:10:53;;;;;;;3.80;1.67;;;17.00;1.00;;;;;;4976963;28;20443;-82
2023/05/02 12:13:22;;;;;;;5.27;2.00;;;17.70;1.00;;;;;;4976072;28;20465;-86
2023/05/02 12:15:51;;;;;;;8.30;2.93;;;18.40;1.00;;;;;;4975969;28;20901;-84
2023/05/02 12:18:19;;;;;;;4.70;1.93;;;18.80;1.00;;;;;;4981403;28;20468;-86
2023/05/02 12:20:47;;;;;;;2.70;1.80;;;19.30;1.00;;;;;;4977429;28;20540;-87
2023/05/02 12:23:14;;;;;;;3.17;1.73;;;19.60;99.90;;;;;;4988097;28;20562;-82
2023/05/02 12:25:42;;;;;;;3.50;2.00;;;19.40;99.90;;;;;;4980128;28;20486;-86
2023/05/02 12:28:10;;;;;;;3.77;2.23;;;19.30;99.90;;;;;;4964683;28;20458;-85
2023/05/02 12:30:38;;;;;;;2.57;1.40;;;19.60;99.90;;;;;;4970696;28;20466;-82
2023/05/02 12:33:06;;;;;;;4.40;2.10;;;20.80;99.90;;;;;;4971509;28;21161;-86
2023/05/02 12:35:33;;;;;;;3.93;2.00;;;20.40;99.90;;;;;;4982337;28;20498;-85
2023/05/02 12:38:13;;;;;;;3.13;2.03;;;20.30;99.90;;;;;;4986700;28;20470;-85
2023/05/02 12:40:48;;;;;;;7.00;2.00;;;20.50;99.90;;;;;;4990464;28;20469;-87
2023/05/02 12:43:14;;;;;;;4.10;2.50;;;20.30;99.90;;;;;;4971916;28;20466;-87
2023/05/02 12:45:42;;;;;;;7.03;2.37;;;20.10;99.90;;;;;;4973152;28;20471;-85
2023/05/02 12:48:20;;;;;;;5.57;2.13;;;19.80;99.90;;;;;;4974221;28;20533;-86
2023/05/02 12:50:47;;;;;;;4.53;2.43;;;20.30;99.90;;;;;;4983152;28;20497;-87